createdAt,value
2022-08-16T00:00:46.327Z,1.52
2022-08-16T00:03:14.772Z,1.52
2022-08-16T00:05:47.922Z,1.23
2022-08-16T00:08:35.737Z,0.92
2022-08-16T00:11:07.150Z,0.77
2022-08-16T00:13:41.964Z,1.12
2022-08-16T00:17:05.688Z,1.60
2022-08-16T00:18:59.154Z,1.37
2022-08-16T00:21:29.175Z,1.33
2022-08-16T00:23:59.406Z,1.03
2022-08-16T00:26:36.007Z,1.39
2022-08-16T00:29:17.438Z,0.97
2022-08-16T00:32:00.718Z,0.85
2022-08-16T00:34:44.637Z,1.48
2022-08-16T00:37:20.739Z,1.17
2022-08-16T00:39:56.942Z,1.19
2022-08-16T00:42:30.173Z,1.65
2022-08-16T00:45:16.123Z,1.37
2022-08-16T00:47:49.497Z,1.87
2022-08-16T00:50:20.330Z,1.70
2022-08-16T00:52:51.014Z,1.92
2022-08-16T00:55:20.697Z,1.44
2022-08-16T00:57:59.981Z,1.28
2022-08-16T01:00:32.329Z,1.53
2022-08-16T01:03:03.903Z,1.61
2022-08-16T01:05:33.449Z,1.27
2022-08-16T01:08:02.892Z,1.08
2022-08-16T01:10:53.227Z,0.89
2022-08-16T01:13:22.803Z,1.02
2022-08-16T01:15:59.317Z,0.94
2022-08-16T01:18:39.895Z,1.23
2022-08-16T01:21:22.544Z,1.51
2022-08-16T01:24:51.870Z,1.06
2022-08-16T01:27:25.754Z,0.88
2022-08-16T01:29:59.571Z,1.01
2022-08-16T01:35:07.245Z,0.95
2022-08-16T01:37:45.517Z,1.11
2022-08-16T01:40:24.281Z,1.15
2022-08-16T01:42:55.897Z,1.09
2022-08-16T01:45:24.186Z,1.08
2022-08-16T01:48:19.586Z,0.93
2022-08-16T01:51:08.833Z,0.96
2022-08-16T01:53:41.114Z,0.95
2022-08-16T01:56:23.522Z,0.95
2022-08-16T01:58:55.339Z,0.83
2022-08-16T02:01:23.264Z,0.98
2022-08-16T02:03:58.159Z,1.20
2022-08-16T02:06:34.221Z,1.03
2022-08-16T02:09:06.971Z,1.19
2022-08-16T02:11:47.511Z,0.95
2022-08-16T02:14:18.542Z,0.98
2022-08-16T02:16:48.472Z,1.22
2022-08-16T02:19:16.723Z,1.70
2022-08-16T02:22:08.492Z,1.14
2022-08-16T02:24:45.995Z,0.97
2022-08-16T02:27:14.193Z,0.96
2022-08-16T02:29:47.707Z,1.75
2022-08-16T02:32:50.734Z,1.70
2022-08-16T02:35:06.039Z,1.42
2022-08-16T02:37:51.294Z,1.03
2022-08-16T02:40:21.619Z,0.81
2022-08-16T02:42:50.687Z,0.82
2022-08-16T02:45:28.047Z,1.00
2022-08-16T02:48:01.344Z,0.67
2022-08-16T02:51:06.452Z,0.77
2022-08-16T02:53:43.343Z,1.33
2022-08-16T02:56:12.018Z,1.06
2022-08-16T02:58:42.230Z,0.88
2022-08-16T03:01:24.693Z,0.90
2022-08-16T03:04:48.830Z,0.85
2022-08-16T03:06:56.145Z,0.93
2022-08-16T03:09:32.527Z,0.80
2022-08-16T03:12:02.449Z,0.89
2022-08-16T03:14:29.961Z,1.19
2022-08-16T03:17:00.753Z,1.01
2022-08-16T03:19:47.200Z,0.96
2022-08-16T03:22:28.068Z,1.35
2022-08-16T03:24:57.827Z,1.59
2022-08-16T03:27:30.884Z,1.55
2022-08-16T03:30:00.498Z,1.69
2022-08-16T03:32:29.135Z,1.28
2022-08-16T03:34:56.326Z,1.00
2022-08-16T03:37:23.778Z,0.83
2022-08-16T03:39:56.765Z,0.77
2022-08-16T03:42:32.524Z,0.82
2022-08-16T03:45:04.737Z,1.05
2022-08-16T03:47:34.476Z,1.01
2022-08-16T03:50:04.028Z,0.86
2022-08-16T03:52:53.908Z,0.85
2022-08-16T03:55:28.983Z,1.69
2022-08-16T03:58:12.687Z,1.45
2022-08-16T04:00:42.428Z,1.15
2022-08-16T04:03:12.790Z,1.34
2022-08-16T04:05:48.047Z,1.13
2022-08-16T04:08:23.517Z,1.18
2022-08-16T04:10:54.112Z,1.18
2022-08-16T04:14:01.277Z,0.86
2022-08-16T04:16:26.495Z,0.83
2022-08-16T04:19:02.299Z,0.68
2022-08-16T04:21:34.517Z,0.64
2022-08-16T04:24:02.998Z,0.86
2022-08-16T04:26:33.424Z,0.73
2022-08-16T04:29:15.183Z,1.33
2022-08-16T04:31:56.473Z,1.20
2022-08-16T04:34:32.466Z,0.89
2022-08-16T04:37:03.423Z,0.78
2022-08-16T04:39:36.714Z,0.72
2022-08-16T04:42:17.854Z,0.78
2022-08-16T04:44:54.510Z,0.79
2022-08-16T04:47:33.177Z,0.71
2022-08-16T04:50:09.644Z,0.66
2022-08-16T04:52:37.429Z,0.68
2022-08-16T04:55:08.360Z,0.64
2022-08-16T04:57:38.065Z,0.91
2022-08-16T05:00:30.479Z,1.13
2022-08-16T05:03:02.890Z,0.90
2022-08-16T05:05:44.859Z,0.76
2022-08-16T05:08:31.199Z,0.69
2022-08-16T05:11:03.432Z,0.73
2022-08-16T05:13:40.784Z,0.95
2022-08-16T05:16:19.937Z,0.79
2022-08-16T05:18:51.721Z,0.64
2022-08-16T05:21:22.312Z,0.92
2022-08-16T05:23:55.466Z,1.04
2022-08-16T05:26:23.709Z,1.73
2022-08-16T05:28:55.178Z,1.31
2022-08-16T05:31:29.896Z,2.60
2022-08-16T05:33:59.398Z,1.65
2022-08-16T05:36:34.057Z,1.47
2022-08-16T05:39:08.753Z,1.18
2022-08-16T05:41:44.776Z,0.92
2022-08-16T05:44:22.840Z,0.88
2022-08-16T05:46:55.928Z,0.89
2022-08-16T05:49:23.855Z,0.72
2022-08-16T05:51:53.099Z,0.57
2022-08-16T05:54:24.927Z,0.49
2022-08-16T05:57:03.511Z,0.50
2022-08-16T05:59:33.574Z,0.47
2022-08-16T06:02:02.791Z,0.61
2022-08-16T06:04:42.222Z,0.71
2022-08-16T06:07:24.606Z,0.65
2022-08-16T06:09:55.385Z,0.69
2022-08-16T06:12:27.472Z,0.74
2022-08-16T06:15:00.188Z,1.22
2022-08-16T06:17:42.286Z,0.91
2022-08-16T06:20:23.251Z,0.93
2022-08-16T06:22:58.683Z,0.81
2022-08-16T06:25:36.643Z,0.81
2022-08-16T06:28:17.139Z,0.67
2022-08-16T06:30:57.350Z,0.70
2022-08-16T06:33:25.050Z,0.56
2022-08-16T06:35:55.049Z,0.49
2022-08-16T06:38:32.198Z,0.42
2022-08-16T06:41:06.558Z,0.45
2022-08-16T06:43:42.242Z,1.30
2022-08-16T06:46:31.985Z,0.96
2022-08-16T06:49:06.944Z,0.70
2022-08-16T06:51:48.189Z,0.72
2022-08-16T06:54:19.871Z,0.84
2022-08-16T06:56:47.193Z,0.84
2022-08-16T06:59:25.589Z,1.18
2022-08-16T07:01:58.303Z,1.16
2022-08-16T07:04:32.832Z,1.19
2022-08-16T07:07:04.804Z,0.94
2022-08-16T07:09:34.860Z,0.88
2022-08-16T07:12:06.553Z,1.07
2022-08-16T07:14:35.179Z,0.82
2022-08-16T07:17:03.314Z,0.66
2022-08-16T07:20:28.980Z,0.59
2022-08-16T07:22:37.117Z,0.54
2022-08-16T07:25:12.660Z,0.67
2022-08-16T07:27:41.154Z,0.64
2022-08-16T07:30:39.786Z,0.48
2022-08-16T07:32:58.395Z,1.40
2022-08-16T07:35:25.718Z,1.01
2022-08-16T07:37:52.897Z,0.72
2022-08-16T07:40:36.913Z,0.76
2022-08-16T07:43:11.256Z,0.77
2022-08-16T07:45:38.314Z,1.11
2022-08-16T07:48:11.121Z,0.75
2022-08-16T07:50:56.185Z,0.57
2022-08-16T07:53:29.081Z,0.54
2022-08-16T07:55:59.791Z,0.50
2022-08-16T07:58:34.753Z,0.49
2022-08-16T08:01:10.729Z,0.54
2022-08-16T08:06:13.708Z,1.07
2022-08-16T08:08:51.128Z,1.25
2022-08-16T08:11:23.747Z,1.05
2022-08-16T08:13:55.840Z,0.95
2022-08-16T08:16:30.315Z,0.72
2022-08-16T08:19:03.184Z,0.74
2022-08-16T08:21:58.858Z,0.99
2022-08-16T08:24:21.728Z,0.82
2022-08-16T08:26:54.568Z,0.86
2022-08-16T08:29:37.309Z,0.75
2022-08-16T08:32:58.370Z,1.01
2022-08-16T08:35:03.187Z,0.95
2022-08-16T08:37:55.407Z,1.15
2022-08-16T08:40:27.197Z,0.97
2022-08-16T08:43:11.984Z,1.46
2022-08-16T08:45:48.072Z,1.47
2022-08-16T08:48:34.062Z,1.01
2022-08-16T08:51:05.320Z,0.81
2022-08-16T08:53:38.153Z,0.57
2022-08-16T08:56:22.422Z,0.49
2022-08-16T08:58:59.966Z,0.71
2022-08-16T09:01:36.437Z,0.73
2022-08-16T09:04:14.890Z,0.67
2022-08-16T09:06:44.794Z,0.82
2022-08-16T09:09:17.134Z,1.00
2022-08-16T09:12:06.069Z,1.62
2022-08-16T09:14:37.714Z,1.00
2022-08-16T09:17:11.850Z,0.77
2022-08-16T09:19:48.484Z,0.63
2022-08-16T09:22:21.329Z,0.90
2022-08-16T09:24:52.607Z,0.71
2022-08-16T09:27:23.467Z,0.66
2022-08-16T09:30:00.245Z,0.54
2022-08-16T09:32:32.008Z,0.55
2022-08-16T09:35:00.166Z,0.58
2022-08-16T09:37:29.338Z,0.66
2022-08-16T09:39:57.423Z,0.52
2022-08-16T09:42:29.607Z,0.50
2022-08-16T09:45:09.773Z,0.45
2022-08-16T09:47:56.631Z,0.81
2022-08-16T09:50:37.045Z,0.86
2022-08-16T09:53:07.843Z,1.27
2022-08-16T09:55:44.584Z,0.97
2022-08-16T09:58:40.596Z,1.12
2022-08-16T10:01:03.618Z,0.92
2022-08-16T10:03:33.377Z,0.79
2022-08-16T10:06:00.877Z,0.65
2022-08-16T10:08:29.992Z,0.54
2022-08-16T10:10:58.060Z,1.00
2022-08-16T10:13:30.035Z,0.86
2022-08-16T10:16:05.872Z,0.90
2022-08-16T10:19:00.987Z,0.97
2022-08-16T10:21:24.464Z,1.14
2022-08-16T10:23:56.189Z,1.12
2022-08-16T10:27:16.668Z,0.74
2022-08-16T10:29:12.089Z,0.71
2022-08-16T10:31:53.467Z,0.59
2022-08-16T10:34:30.757Z,0.82
2022-08-16T10:37:02.424Z,0.81
2022-08-16T10:39:40.599Z,0.75
2022-08-16T10:42:09.039Z,0.58
2022-08-16T10:44:39.215Z,0.76
2022-08-16T10:47:07.422Z,0.75
2022-08-16T10:49:36.441Z,0.56
2022-08-16T10:52:18.875Z,0.58
2022-08-16T10:57:33.402Z,0.65
2022-08-16T11:00:02.401Z,0.63
2022-08-16T11:02:57.560Z,0.67
2022-08-16T11:05:19.734Z,0.63
2022-08-16T11:07:52.300Z,0.52
2022-08-16T11:16:25.483Z,0.55
2022-08-16T11:19:04.192Z,0.58
2022-08-16T11:21:35.089Z,0.85
2022-08-16T11:24:39.255Z,0.85
2022-08-16T11:29:45.513Z,0.83
2022-08-16T11:32:12.585Z,1.66
2022-08-16T11:35:05.917Z,1.07
2022-08-16T11:38:04.363Z,0.93
2022-08-16T11:40:20.179Z,0.88
2022-08-16T11:43:00.455Z,0.65
2022-08-16T11:45:27.432Z,0.66
2022-08-16T11:48:00.887Z,0.59
2022-08-16T11:50:32.619Z,0.52
2022-08-16T11:52:59.973Z,0.45
2022-08-16T11:55:29.644Z,0.62
2022-08-16T11:57:58.279Z,1.32
2022-08-16T12:00:33.958Z,1.06
2022-08-16T12:03:16.399Z,0.75
2022-08-16T12:05:51.777Z,0.92
2022-08-16T12:08:21.566Z,0.93
2022-08-16T12:10:53.166Z,1.10
2022-08-16T12:13:20.389Z,1.62
2022-08-16T12:15:51.667Z,1.09
2022-08-16T12:18:20.604Z,0.90
2022-08-16T12:20:50.160Z,0.82
2022-08-16T12:23:17.714Z,0.77
2022-08-16T12:25:45.946Z,1.21
2022-08-16T12:28:16.217Z,0.93
2022-08-16T12:30:52.454Z,0.68
2022-08-16T12:33:25.484Z,1.08
2022-08-16T12:35:55.128Z,0.74
2022-08-16T12:38:40.860Z,1.29
2022-08-16T12:41:10.187Z,1.08
2022-08-16T12:43:37.296Z,0.76
2022-08-16T12:46:14.253Z,1.01
2022-08-16T12:48:43.812Z,0.68
2022-08-16T12:51:22.355Z,0.80
2022-08-16T12:53:53.351Z,0.58
2022-08-16T12:56:25.171Z,0.67
2022-08-16T12:58:56.078Z,0.67
2022-08-16T13:01:27.157Z,0.74
2022-08-16T13:04:20.800Z,0.78
2022-08-16T13:06:48.065Z,0.70
2022-08-16T13:09:26.465Z,0.55
2022-08-16T13:12:00.514Z,0.65
2022-08-16T13:14:33.170Z,0.51
2022-08-16T13:17:02.003Z,0.41
2022-08-16T13:19:56.034Z,0.76
2022-08-16T13:22:24.268Z,0.91
2022-08-16T13:24:52.096Z,0.70
2022-08-16T13:28:03.459Z,0.57
2022-08-16T13:30:11.359Z,0.54
2022-08-16T13:32:58.482Z,0.64
2022-08-16T13:35:27.860Z,1.29
2022-08-16T13:38:03.944Z,0.89
2022-08-16T13:40:33.384Z,0.98
2022-08-16T13:43:02.014Z,0.92
2022-08-16T13:45:36.100Z,0.83
2022-08-16T13:48:04.729Z,0.99
2022-08-16T13:50:51.283Z,0.87
2022-08-16T13:53:24.111Z,0.70
2022-08-16T13:55:57.992Z,0.71
2022-08-16T13:58:34.444Z,0.56
2022-08-16T14:01:04.148Z,0.53
2022-08-16T14:03:44.027Z,0.54
2022-08-16T14:06:12.968Z,0.59
2022-08-16T14:08:44.083Z,2.67
2022-08-16T14:11:18.778Z,1.94
2022-08-16T14:13:51.073Z,1.87
2022-08-16T14:16:23.863Z,1.32
2022-08-16T14:18:52.749Z,0.94
2022-08-16T14:21:23.585Z,1.16
2022-08-16T14:23:52.662Z,0.87
2022-08-16T14:26:21.215Z,1.05
2022-08-16T14:28:48.551Z,0.95
2022-08-16T14:31:18.113Z,0.66
2022-08-16T14:33:47.520Z,0.54
2022-08-16T14:36:25.065Z,0.43
2022-08-16T14:39:00.346Z,0.91
2022-08-16T14:41:30.051Z,0.78
2022-08-16T14:43:58.586Z,0.67
2022-08-16T14:46:27.333Z,0.85
2022-08-16T14:48:54.595Z,1.11
2022-08-16T14:51:22.817Z,0.94
2022-08-16T14:53:59.839Z,0.97
2022-08-16T14:56:38.795Z,0.71
2022-08-16T15:01:57.640Z,0.56
2022-08-16T15:04:39.353Z,0.71
2022-08-16T15:07:10.796Z,0.52
2022-08-16T15:09:43.944Z,0.46
2022-08-16T15:12:36.020Z,1.01
2022-08-16T15:15:12.366Z,0.70
2022-08-16T15:17:56.184Z,0.62
2022-08-16T15:20:26.639Z,0.55
2022-08-16T15:22:55.688Z,0.48
2022-08-16T15:25:29.215Z,0.44
2022-08-16T15:27:59.294Z,0.47
2022-08-16T15:30:58.449Z,0.50
2022-08-16T15:33:16.674Z,0.77
2022-08-16T15:35:46.504Z,0.66
2022-08-16T15:38:54.765Z,0.54
2022-08-16T15:41:19.681Z,0.55
2022-08-16T15:44:05.021Z,0.55
2022-08-16T15:46:56.868Z,0.90
2022-08-16T15:49:38.134Z,0.80
2022-08-16T15:52:15.837Z,0.65
2022-08-16T15:54:52.432Z,0.57
2022-08-16T15:57:24.811Z,0.49
2022-08-16T15:59:55.989Z,0.72
2022-08-16T16:02:29.171Z,1.02
2022-08-16T16:05:04.312Z,1.36
2022-08-16T16:07:33.755Z,0.91
2022-08-16T16:10:04.971Z,0.67
2022-08-16T16:12:53.759Z,0.60
2022-08-16T16:15:25.814Z,0.60
2022-08-16T16:17:57.763Z,0.63
2022-08-16T16:20:31.707Z,1.78
2022-08-16T16:23:02.623Z,1.87
2022-08-16T16:25:33.300Z,1.28
2022-08-16T16:28:01.672Z,1.37
2022-08-16T16:30:45.034Z,0.97
2022-08-16T16:33:22.304Z,1.30
2022-08-16T16:35:56.982Z,1.03
2022-08-16T16:38:26.540Z,0.73
2022-08-16T16:40:59.733Z,0.69
2022-08-16T16:43:31.965Z,1.11
2022-08-16T16:46:02.240Z,1.65
2022-08-16T16:48:34.964Z,1.29
2022-08-16T16:51:10.214Z,0.90
2022-08-16T16:53:40.424Z,0.87
2022-08-16T16:56:19.421Z,0.74
2022-08-16T16:58:53.938Z,0.63
2022-08-16T17:01:35.218Z,0.68
2022-08-16T17:04:19.838Z,0.70
2022-08-16T17:06:53.453Z,1.58
2022-08-16T17:09:24.264Z,1.11
2022-08-16T17:11:55.178Z,0.89
2022-08-16T17:14:33.593Z,0.69
2022-08-16T17:17:06.199Z,1.11
2022-08-16T17:19:41.021Z,1.36
2022-08-16T17:22:14.744Z,0.93
2022-08-16T17:24:45.482Z,0.73
2022-08-16T17:27:33.944Z,0.58
2022-08-16T17:30:15.833Z,0.76
2022-08-16T17:32:47.999Z,0.67
2022-08-16T17:35:22.937Z,1.00
2022-08-16T17:37:54.666Z,0.89
2022-08-16T17:40:47.213Z,0.84
2022-08-16T17:43:18.803Z,0.67
2022-08-16T17:45:49.220Z,0.74
2022-08-16T17:48:16.167Z,1.01
2022-08-16T17:50:46.078Z,1.47
2022-08-16T17:53:13.642Z,1.31
2022-08-16T17:55:44.655Z,1.24
2022-08-16T17:58:22.365Z,1.48
2022-08-16T18:04:06.865Z,1.54
2022-08-16T18:06:16.460Z,1.14
2022-08-16T18:08:44.003Z,1.49
2022-08-16T18:11:12.089Z,1.24
2022-08-16T18:13:46.184Z,1.28
2022-08-16T18:16:15.629Z,1.46
2022-08-16T18:18:46.444Z,1.09
2022-08-16T18:21:15.112Z,1.29
2022-08-16T18:23:42.379Z,1.15
2022-08-16T18:26:13.419Z,1.27
2022-08-16T18:28:40.462Z,1.04
2022-08-16T18:31:08.516Z,1.10
2022-08-16T18:33:43.677Z,1.33
2022-08-16T18:36:20.473Z,1.08
2022-08-16T18:38:49.470Z,1.12
2022-08-16T18:41:18.733Z,1.06
2022-08-16T18:44:24.293Z,1.53
2022-08-16T18:46:32.874Z,1.23
2022-08-16T18:49:01.168Z,1.25
2022-08-16T18:51:30.184Z,1.12
2022-08-16T18:53:58.836Z,1.31
2022-08-16T18:56:53.888Z,1.38
2022-08-16T18:59:13.242Z,1.07
2022-08-16T19:01:40.137Z,1.26
2022-08-16T19:04:55.097Z,1.21
2022-08-16T19:06:57.592Z,1.48
2022-08-16T19:09:24.531Z,1.55
2022-08-16T19:11:53.934Z,1.37
2022-08-16T19:14:21.433Z,1.66
2022-08-16T19:16:48.800Z,1.39
2022-08-16T19:19:17.383Z,1.71
2022-08-16T19:21:46.132Z,1.57
2022-08-16T19:24:17.823Z,1.19
2022-08-16T19:26:49.929Z,1.01
2022-08-16T19:29:17.261Z,1.01
2022-08-16T19:31:44.331Z,0.82
2022-08-16T19:34:11.241Z,1.54
2022-08-16T19:36:44.799Z,1.38
2022-08-16T19:39:14.342Z,1.21
2022-08-16T19:41:44.821Z,1.15
2022-08-16T19:44:12.643Z,1.18
2022-08-16T19:46:41.805Z,2.51
2022-08-16T19:49:08.830Z,2.25
2022-08-16T19:51:51.751Z,2.06
2022-08-16T19:54:18.708Z,2.48
2022-08-16T19:56:46.191Z,1.64
2022-08-16T19:59:40.121Z,1.24
2022-08-16T20:02:03.164Z,1.39
2022-08-16T20:04:30.455Z,1.26
2022-08-16T20:07:00.426Z,1.36
2022-08-16T20:09:29.083Z,1.73
2022-08-16T20:12:00.380Z,1.27
2022-08-16T20:14:29.169Z,1.38
2022-08-16T20:16:58.653Z,1.89
2022-08-16T20:19:28.710Z,1.39
2022-08-16T20:22:05.734Z,1.72
2022-08-16T20:24:36.019Z,1.21
2022-08-16T20:27:07.779Z,1.17
2022-08-16T20:29:36.276Z,0.93
2022-08-16T20:32:10.737Z,1.44
2022-08-16T20:34:38.305Z,2.48
2022-08-16T20:37:06.888Z,2.67
2022-08-16T20:39:34.478Z,1.76
2022-08-16T20:42:02.609Z,1.96
2022-08-16T20:44:29.803Z,1.46
2022-08-16T20:46:56.897Z,1.18
2022-08-16T20:52:02.314Z,1.04
2022-08-16T20:54:31.048Z,2.43
2022-08-16T20:57:01.487Z,1.87
2022-08-16T20:59:29.845Z,1.55
2022-08-16T21:01:57.636Z,1.39
2022-08-16T21:04:28.950Z,1.27
2022-08-16T21:06:56.907Z,1.20
2022-08-16T21:09:25.487Z,1.17
2022-08-16T21:11:56.240Z,1.12
2022-08-16T21:14:24.611Z,0.96
2022-08-16T21:16:51.586Z,1.31
2022-08-16T21:19:19.844Z,1.70
2022-08-16T21:21:47.490Z,1.25
2022-08-16T21:24:24.641Z,1.14
2022-08-16T21:26:56.429Z,0.97
2022-08-16T21:29:39.850Z,0.89
2022-08-16T21:32:13.674Z,1.49
2022-08-16T21:34:41.754Z,1.33
2022-08-16T21:37:09.808Z,0.96
2022-08-16T21:39:37.574Z,0.87
2022-08-16T21:42:12.787Z,1.45
2022-08-16T21:44:39.991Z,1.16
2022-08-16T21:47:10.676Z,1.29
2022-08-16T21:49:40.115Z,1.44
2022-08-16T21:52:26.686Z,1.28
2022-08-16T21:54:56.293Z,1.17
2022-08-16T21:57:26.528Z,1.28
2022-08-16T22:00:07.661Z,1.24
2022-08-16T22:02:47.899Z,1.04
2022-08-16T22:05:18.807Z,1.13
2022-08-16T22:07:46.481Z,1.30
2022-08-16T22:11:07.159Z,1.27
2022-08-16T22:13:15.755Z,1.02
2022-08-16T22:15:45.650Z,0.84
2022-08-16T22:18:18.679Z,0.75
2022-08-16T22:20:48.419Z,0.74
2022-08-16T22:23:25.349Z,1.58
2022-08-16T22:25:54.352Z,1.22
2022-08-16T22:28:23.431Z,1.16
2022-08-16T22:30:51.083Z,1.13
2022-08-16T22:33:29.385Z,0.95
2022-08-16T22:36:01.359Z,1.05
2022-08-16T22:38:56.718Z,1.41
2022-08-16T22:41:22.051Z,1.13
2022-08-16T22:43:53.225Z,0.96
2022-08-16T22:46:20.202Z,1.41
2022-08-16T22:48:48.442Z,1.09
2022-08-16T22:51:15.406Z,0.94
2022-08-16T22:53:43.434Z,1.61
2022-08-16T22:56:10.751Z,1.67
2022-08-16T22:58:39.160Z,1.39
2022-08-16T23:01:09.538Z,1.29
2022-08-16T23:03:38.603Z,1.57
2022-08-16T23:06:07.247Z,1.41
2022-08-16T23:08:39.295Z,1.26
2022-08-16T23:11:14.699Z,1.45
2022-08-16T23:13:53.213Z,1.10
2022-08-16T23:16:25.059Z,0.87
2022-08-16T23:19:00.232Z,1.05
2022-08-16T23:21:30.238Z,0.93
2022-08-16T23:24:02.751Z,1.42
2022-08-16T23:26:44.811Z,1.16
2022-08-16T23:29:24.501Z,1.21
2022-08-16T23:32:15.583Z,1.13
2022-08-16T23:34:45.783Z,1.17
2022-08-16T23:37:19.676Z,1.03
2022-08-16T23:39:54.595Z,1.30
2022-08-16T23:42:53.131Z,1.20
2022-08-16T23:45:14.667Z,2.18
2022-08-16T23:47:47.276Z,2.24
2022-08-16T23:50:14.806Z,1.60
2022-08-16T23:52:55.947Z,1.42
2022-08-16T23:55:28.990Z,1.06
2022-08-16T23:58:04.440Z,1.14
